Airfield :
LOGIN :

Register | Disclaimer

   EN    FR    IT 

 










Legend :    VFR   Marginal VFR   IFR   Intensive IFR   Very Intensive IFR
Visi :
Ceiling :
>= 8 km
>= 3000ft
5 to 8 km
1000 to 3000 ft
1500m to 5 km
500 to 1000 ft
800 to 1500m
200 to 500 ft
< 800m
< 200 ft
Symbols :   Thunderstorms  Fog  Heavy snow  Heavy precipitations  Wind > 20 kt
SIGMETs :     Misc.  Thunderstorms  Icing  Turbulence  Mountain Waves  Volcanic Ashes






- Airport Elevation : 464 ft
- IATA code : EVX


LFOE - Evreux

CURRENT METAR :
  • 271430Z AUTO 31020G35KT 9999 BKN026 BKN032 OVC038 06/02 Q1003 NOSIG

EXPIRED METARs :
  • 271400Z AUTO 31022G36KT 9999 BKN022 OVC027 07/03 Q1002 NOSIG
  • 271330Z AUTO 31019G30KT 280V340 9999 OVC021 06/03 Q1000 NOSIG
  • 271300Z AUTO 31021G39KT 9999 BKN017 OVC023 07/03 Q0998 NOSIG
  • 271230Z AUTO 31025G38KT 9999 OVC019 06/03 Q0997 NOSIG
  • 271200Z AUTO 32027G43KT 9999 FEW008 BKN020 OVC025 07/04 Q0995 NOSIG

TAF TAF LFOE
Valid from the 27 at 09:00 until the 28 at 09:00 UTC


270800Z 2709/2809 20015G25KT 7000 BKN008 OVC015
BECMG 2709/2710 26025G35KT BKN015
TEMPO 2710/2714 28025G45KT
PROB40
TEMPO 2711/2713 30030G50KT
BECMG 2714/2715 32020G35KT SCT035
BECMG 2719/2721 24010KT
BECMG 2801/2803 18010KT
TEMPO 2807/2809 4000 -RA



MET'MAP, your aeronautical weather chart ! - Copyright ORBIFLY December 2007 - Disclaimer

ORBIFLY MET'MAP TEAM :

Programming & Development : Alexandra Zaïnal
Concept & original design : Baudouin d'Aumeries
Assistance for programming : Marc-Olivier Méhu
Technical & hardware support : Manuel Goepfert

Contact : metmap@orbifly.com




SOURCES & CREDITS :

   NOAA